sensor_id;sensor_type;location;lat;lon;timestamp;pressure;altitude;pressure_sealevel;temperature;humidity
66486;BME280;53303;47.476;8.084;2022-12-18T00:01:27;96006.91;;;19.48;29.86
66486;BME280;53303;47.476;8.084;2022-12-18T00:03:56;96014.03;;;19.54;29.75
66486;BME280;53303;47.476;8.084;2022-12-18T00:06:23;96016.78;;;19.54;29.79
66486;BME280;53303;47.476;8.084;2022-12-18T00:08:52;96013.75;;;19.52;29.66
66486;BME280;53303;47.476;8.084;2022-12-18T00:11:20;95992.75;;;19.40;29.76
66486;BME280;53303;47.476;8.084;2022-12-18T00:13:46;95985.22;;;19.40;29.90
66486;BME280;53303;47.476;8.084;2022-12-18T00:16:16;96014.50;;;19.53;29.76
66486;BME280;53303;47.476;8.084;2022-12-18T00:18:45;96011.00;;;19.52;29.82
66486;BME280;53303;47.476;8.084;2022-12-18T00:21:12;95993.25;;;19.38;29.84
66486;BME280;53303;47.476;8.084;2022-12-18T00:23:39;96005.19;;;19.50;29.71
66486;BME280;53303;47.476;8.084;2022-12-18T00:26:07;95998.38;;;19.51;29.86
66486;BME280;53303;47.476;8.084;2022-12-18T00:28:33;96003.66;;;19.49;29.66
66486;BME280;53303;47.476;8.084;2022-12-18T00:31:04;96005.44;;;19.52;29.85
66486;BME280;53303;47.476;8.084;2022-12-18T00:33:33;96007.19;;;19.50;29.80
66486;BME280;53303;47.476;8.084;2022-12-18T00:36:09;95995.84;;;19.48;29.79
66486;BME280;53303;47.476;8.084;2022-12-18T00:38:35;96008.97;;;19.53;29.69
66486;BME280;53303;47.476;8.084;2022-12-18T00:41:06;95991.28;;;19.45;29.68
66486;BME280;53303;47.476;8.084;2022-12-18T00:43:32;95987.72;;;19.38;29.89
66486;BME280;53303;47.476;8.084;2022-12-18T00:45:57;95989.50;;;19.42;29.43
66486;BME280;53303;47.476;8.084;2022-12-18T00:48:22;95983.94;;;19.36;29.67
66486;BME280;53303;47.476;8.084;2022-12-18T00:50:51;96013.00;;;19.52;29.60
66486;BME280;53303;47.476;8.084;2022-12-18T00:53:17;96003.34;;;19.42;29.75
66486;BME280;53303;47.476;8.084;2022-12-18T00:55:45;96006.16;;;19.47;29.91
66486;BME280;53303;47.476;8.084;2022-12-18T00:58:16;95988.94;;;19.37;29.64
66486;BME280;53303;47.476;8.084;2022-12-18T01:00:44;95964.44;;;19.25;29.67
66486;BME280;53303;47.476;8.084;2022-12-18T01:03:13;95989.72;;;19.38;29.56
66486;BME280;53303;47.476;8.084;2022-12-18T01:05:42;95975.78;;;19.27;29.60
66486;BME280;53303;47.476;8.084;2022-12-18T01:08:07;96004.09;;;19.42;29.73
66486;BME280;53303;47.476;8.084;2022-12-18T01:10:33;95995.47;;;19.34;29.72
66486;BME280;53303;47.476;8.084;2022-12-18T01:12:58;96004.06;;;19.36;29.57
66486;BME280;53303;47.476;8.084;2022-12-18T01:15:24;96005.28;;;19.35;29.70
66486;BME280;53303;47.476;8.084;2022-12-18T01:17:54;96007.84;;;19.39;29.72
66486;BME280;53303;47.476;8.084;2022-12-18T01:20:19;96013.31;;;19.33;29.74
66486;BME280;53303;47.476;8.084;2022-12-18T01:22:47;96017.13;;;19.36;29.69
66486;BME280;53303;47.476;8.084;2022-12-18T01:25:17;96033.31;;;19.43;29.68
66486;BME280;53303;47.476;8.084;2022-12-18T01:27:45;96023.94;;;19.40;29.62
66486;BME280;53303;47.476;8.084;2022-12-18T01:30:13;96034.84;;;19.50;29.65
66486;BME280;53303;47.476;8.084;2022-12-18T01:32:40;96029.91;;;19.33;29.53
66486;BME280;53303;47.476;8.084;2022-12-18T01:35:06;96027.41;;;19.35;29.60
66486;BME280;53303;47.476;8.084;2022-12-18T01:37:35;96008.44;;;19.23;29.62
66486;BME280;53303;47.476;8.084;2022-12-18T01:40:06;96037.31;;;19.42;29.69
66486;BME280;53303;47.476;8.084;2022-12-18T01:42:32;96049.69;;;19.47;29.75
66486;BME280;53303;47.476;8.084;2022-12-18T01:45:08;96058.53;;;19.51;29.66
66486;BME280;53303;47.476;8.084;2022-12-18T01:47:52;96047.56;;;19.36;29.84
66486;BME280;53303;47.476;8.084;2022-12-18T01:50:25;96068.56;;;19.48;29.65
66486;BME280;53303;47.476;8.084;2022-12-18T01:53:04;96064.66;;;19.34;29.57
66486;BME280;53303;47.476;8.084;2022-12-18T01:55:34;96068.56;;;19.48;29.53
66486;BME280;53303;47.476;8.084;2022-12-18T01:58:01;96065.78;;;19.48;29.63
66486;BME280;53303;47.476;8.084;2022-12-18T02:00:28;96028.34;;;19.27;29.55
66486;BME280;53303;47.476;8.084;2022-12-18T02:02:56;96050.88;;;19.40;29.50
66486;BME280;53303;47.476;8.084;2022-12-18T02:16:38;96045.28;;;19.34;29.38
66486;BME280;53303;47.476;8.084;2022-12-18T02:19:20;96049.06;;;19.37;29.60
66486;BME280;53303;47.476;8.084;2022-12-18T02:21:54;96033.78;;;19.42;29.65
66486;BME280;53303;47.476;8.084;2022-12-18T02:27:07;96051.41;;;19.44;29.62
66486;BME280;53303;47.476;8.084;2022-12-18T02:32:28;96041.81;;;19.39;29.61
66486;BME280;53303;47.476;8.084;2022-12-18T02:34:56;96047.63;;;19.42;29.42
66486;BME280;53303;47.476;8.084;2022-12-18T02:37:25;96048.16;;;19.46;29.46
66486;BME280;53303;47.476;8.084;2022-12-18T02:39:55;96047.41;;;19.45;29.49
66486;BME280;53303;47.476;8.084;2022-12-18T02:42:24;96062.00;;;19.46;29.60
66486;BME280;53303;47.476;8.084;2022-12-18T02:44:53;96059.22;;;19.46;29.44
66486;BME280;53303;47.476;8.084;2022-12-18T02:47:21;96054.44;;;19.46;29.43
66486;BME280;53303;47.476;8.084;2022-12-18T02:52:51;96075.31;;;19.42;29.49
66486;BME280;53303;47.476;8.084;2022-12-18T03:04:22;96081.59;;;19.42;29.32
66486;BME280;53303;47.476;8.084;2022-12-18T03:06:58;96058.56;;;19.30;29.45
66486;BME280;53303;47.476;8.084;2022-12-18T03:09:34;96076.53;;;19.40;29.43
66486;BME280;53303;47.476;8.084;2022-12-18T03:12:09;96069.97;;;19.38;29.27
66486;BME280;53303;47.476;8.084;2022-12-18T03:17:25;96088.16;;;19.45;29.36
66486;BME280;53303;47.476;8.084;2022-12-18T03:19:53;96086.91;;;19.46;29.46
66486;BME280;53303;47.476;8.084;2022-12-18T03:22:26;96089.69;;;19.46;29.27
66486;BME280;53303;47.476;8.084;2022-12-18T03:24:53;96064.38;;;19.32;29.41
66486;BME280;53303;47.476;8.084;2022-12-18T03:27:23;96078.34;;;19.44;29.66
66486;BME280;53303;47.476;8.084;2022-12-18T03:29:55;96081.38;;;19.46;29.47
66486;BME280;53303;47.476;8.084;2022-12-18T03:32:31;96080.28;;;19.37;29.13
66486;BME280;53303;47.476;8.084;2022-12-18T03:35:03;96085.09;;;19.43;29.35
66486;BME280;53303;47.476;8.084;2022-12-18T03:37:34;96086.91;;;19.46;29.27
66486;BME280;53303;47.476;8.084;2022-12-18T03:39:59;96072.97;;;19.34;29.20
66486;BME280;53303;47.476;8.084;2022-12-18T03:45:18;96086.59;;;19.38;29.20
66486;BME280;53303;47.476;8.084;2022-12-18T03:48:13;96091.69;;;19.45;29.31
66486;BME280;53303;47.476;8.084;2022-12-18T03:51:00;96087.38;;;19.44;29.44
66486;BME280;53303;47.476;8.084;2022-12-18T03:56:12;96076.31;;;19.44;29.41
66486;BME280;53303;47.476;8.084;2022-12-18T03:58:40;96081.09;;;19.44;29.30
66486;BME280;53303;47.476;8.084;2022-12-18T04:01:10;96066.38;;;19.32;29.16
66486;BME280;53303;47.476;8.084;2022-12-18T04:03:42;96073.22;;;19.36;29.14
66486;BME280;53303;47.476;8.084;2022-12-18T04:06:11;96078.75;;;19.36;29.13
66486;BME280;53303;47.476;8.084;2022-12-18T04:08:42;96087.88;;;19.43;29.37
66486;BME280;53303;47.476;8.084;2022-12-18T04:11:08;96085.31;;;19.39;29.13
66486;BME280;53303;47.476;8.084;2022-12-18T04:13:36;96088.44;;;19.47;29.16
66486;BME280;53303;47.476;8.084;2022-12-18T04:16:05;96076.25;;;19.38;29.15
66486;BME280;53303;47.476;8.084;2022-12-18T04:18:31;96085.31;;;19.39;29.17
66486;BME280;53303;47.476;8.084;2022-12-18T04:20:56;96083.03;;;19.37;29.17
66486;BME280;53303;47.476;8.084;2022-12-18T04:23:26;96086.38;;;19.42;29.18
66486;BME280;53303;47.476;8.084;2022-12-18T04:25:52;96095.44;;;19.42;29.33
66486;BME280;53303;47.476;8.084;2022-12-18T04:28:17;96095.69;;;19.44;29.21
66486;BME280;53303;47.476;8.084;2022-12-18T04:30:45;96088.88;;;19.39;29.21
66486;BME280;53303;47.476;8.084;2022-12-18T04:33:11;96100.97;;;19.42;28.91
66486;BME280;53303;47.476;8.084;2022-12-18T04:35:40;96103.03;;;19.47;29.09
66486;BME280;53303;47.476;8.084;2022-12-18T04:38:08;96093.34;;;19.37;29.09
66486;BME280;53303;47.476;8.084;2022-12-18T04:40:38;96098.19;;;19.42;29.01
66486;BME280;53303;47.476;8.084;2022-12-18T04:43:06;96089.13;;;19.42;29.06
66486;BME280;53303;47.476;8.084;2022-12-18T04:45:32;96099.50;;;19.47;28.93
66486;BME280;53303;47.476;8.084;2022-12-18T04:47:59;96072.41;;;19.30;28.77
66486;BME280;53303;47.476;8.084;2022-12-18T04:50:24;96083.03;;;19.37;28.84
66486;BME280;53303;47.476;8.084;2022-12-18T04:52:52;96098.19;;;19.42;28.87
66486;BME280;53303;47.476;8.084;2022-12-18T04:55:21;96090.16;;;19.44;28.99
66486;BME280;53303;47.476;8.084;2022-12-18T04:57:50;96096.19;;;19.43;29.05
66486;BME280;53303;47.476;8.084;2022-12-18T05:00:18;96103.50;;;19.46;28.93
66486;BME280;53303;47.476;8.084;2022-12-18T05:02:48;96103.25;;;19.44;28.83
66486;BME280;53303;47.476;8.084;2022-12-18T05:05:14;96086.09;;;19.39;28.83
66486;BME280;53303;47.476;8.084;2022-12-18T05:07:39;96088.94;;;19.45;28.80
66486;BME280;53303;47.476;8.084;2022-12-18T05:10:06;96077.03;;;19.39;28.92
66486;BME280;53303;47.476;8.084;2022-12-18T05:12:32;96085.38;;;19.45;28.74
66486;BME280;53303;47.476;8.084;2022-12-18T05:14:57;96085.38;;;19.45;28.85
66486;BME280;53303;47.476;8.084;2022-12-18T05:17:25;96060.16;;;19.37;28.79
66486;BME280;53303;47.476;8.084;2022-12-18T05:19:50;96080.28;;;19.37;28.71
66486;BME280;53303;47.476;8.084;2022-12-18T05:22:16;96051.25;;;19.27;28.95
66486;BME280;53303;47.476;8.084;2022-12-18T05:24:43;96069.72;;;19.36;28.81
66486;BME280;53303;47.476;8.084;2022-12-18T05:27:09;96087.38;;;19.44;28.72
66486;BME280;53303;47.476;8.084;2022-12-18T05:29:37;96063.19;;;19.39;28.88
66486;BME280;53303;47.476;8.084;2022-12-18T05:32:07;96070.25;;;19.40;28.72
66486;BME280;53303;47.476;8.084;2022-12-18T05:34:32;96088.34;;;19.41;28.69
66486;BME280;53303;47.476;8.084;2022-12-18T05:37:00;96088.16;;;19.45;28.79
66486;BME280;53303;47.476;8.084;2022-12-18T05:39:25;96096.19;;;19.43;28.69
66486;BME280;53303;47.476;8.084;2022-12-18T05:41:53;96103.25;;;19.44;28.85
66486;BME280;53303;47.476;8.084;2022-12-18T05:44:21;96088.88;;;19.39;28.72
66486;BME280;53303;47.476;8.084;2022-12-18T05:46:46;96083.53;;;19.36;28.55
66486;BME280;53303;47.476;8.084;2022-12-18T05:49:12;96093.09;;;19.35;28.76
66486;BME280;53303;47.476;8.084;2022-12-18T05:51:37;96093.84;;;19.35;28.65
66486;BME280;53303;47.476;8.084;2022-12-18T05:54:02;96095.91;;;19.40;28.78
66486;BME280;53303;47.476;8.084;2022-12-18T05:56:28;96094.75;;;19.27;28.84
66486;BME280;53303;47.476;8.084;2022-12-18T05:58:55;96100.97;;;19.42;28.68
66486;BME280;53303;47.476;8.084;2022-12-18T06:01:24;96107.72;;;19.41;28.74
66486;BME280;53303;47.476;8.084;2022-12-18T06:03:52;96099.63;;;19.37;28.84
66486;BME280;53303;47.476;8.084;2022-12-18T06:06:20;96102.19;;;19.41;28.68
66486;BME280;53303;47.476;8.084;2022-12-18T06:08:51;96109.75;;;19.40;28.69
66486;BME280;53303;47.476;8.084;2022-12-18T06:11:22;96107.72;;;19.41;28.73
66486;BME280;53303;47.476;8.084;2022-12-18T06:13:51;96109.75;;;19.40;28.86
66486;BME280;53303;47.476;8.084;2022-12-18T06:16:16;96115.28;;;19.40;28.63
66486;BME280;53303;47.476;8.084;2022-12-18T06:18:42;96119.78;;;19.38;28.79
66486;BME280;53303;47.476;8.084;2022-12-18T06:21:09;96128.84;;;19.38;28.80
66486;BME280;53303;47.476;8.084;2022-12-18T06:23:35;96143.72;;;19.41;28.83
66486;BME280;53303;47.476;8.084;2022-12-18T06:26:10;96135.63;;;19.37;28.70
66486;BME280;53303;47.476;8.084;2022-12-18T06:28:36;96116.97;;;19.32;28.54
66486;BME280;53303;47.476;8.084;2022-12-18T06:31:05;96127.03;;;19.35;28.67
66486;BME280;53303;47.476;8.084;2022-12-18T06:33:31;96125.47;;;19.29;28.72
66486;BME280;53303;47.476;8.084;2022-12-18T06:36:04;96137.09;;;19.33;28.75
66486;BME280;53303;47.476;8.084;2022-12-18T06:38:34;96148.50;;;19.40;28.75
66486;BME280;53303;47.476;8.084;2022-12-18T06:40:59;96143.09;;;19.31;28.83
66486;BME280;53303;47.476;8.084;2022-12-18T06:43:29;96151.25;;;19.40;28.73
66486;BME280;53303;47.476;8.084;2022-12-18T06:45:59;96153.28;;;19.40;28.86
66486;BME280;53303;47.476;8.084;2022-12-18T06:48:27;96161.56;;;19.40;28.75
66486;BME280;53303;47.476;8.084;2022-12-18T06:50:55;96150.44;;;19.34;28.71
66486;BME280;53303;47.476;8.084;2022-12-18T06:53:21;96158.47;;;19.32;28.69
66486;BME280;53303;47.476;8.084;2022-12-18T06:55:46;96165.09;;;19.40;28.72
66486;BME280;53303;47.476;8.084;2022-12-18T06:58:12;96158.53;;;19.38;28.82
66486;BME280;53303;47.476;8.084;2022-12-18T07:00:37;96169.13;;;19.39;28.86
66486;BME280;53303;47.476;8.084;2022-12-18T07:03:02;96161.03;;;19.36;28.74
66486;BME280;53303;47.476;8.084;2022-12-18T07:05:28;96157.22;;;19.33;28.62
66486;BME280;53303;47.476;8.084;2022-12-18T07:07:53;96161.56;;;19.40;28.73
66486;BME280;53303;47.476;8.084;2022-12-18T07:10:19;96162.19;;;19.29;28.74
66486;BME280;53303;47.476;8.084;2022-12-18T07:12:46;96162.25;;;19.35;28.84
66486;BME280;53303;47.476;8.084;2022-12-18T07:15:12;96169.88;;;19.40;28.69
66486;BME280;53303;47.476;8.084;2022-12-18T07:17:37;96177.44;;;19.39;28.68
66486;BME280;53303;47.476;8.084;2022-12-18T07:20:03;96149.00;;;19.18;28.64
66486;BME280;53303;47.476;8.084;2022-12-18T07:22:29;96165.25;;;19.31;28.77
66486;BME280;53303;47.476;8.084;2022-12-18T07:24:54;96166.06;;;19.37;28.69
66486;BME280;53303;47.476;8.084;2022-12-18T07:27:20;96159.72;;;19.31;28.64
66486;BME280;53303;47.476;8.084;2022-12-18T07:29:50;96165.78;;;19.35;28.71
66486;BME280;53303;47.476;8.084;2022-12-18T07:32:15;96178.38;;;19.36;28.87
66486;BME280;53303;47.476;8.084;2022-12-18T07:34:41;96175.13;;;19.38;28.63
66486;BME280;53303;47.476;8.084;2022-12-18T07:37:08;96189.47;;;19.36;28.70
66486;BME280;53303;47.476;8.084;2022-12-18T07:39:36;96193.25;;;19.39;28.60
66486;BME280;53303;47.476;8.084;2022-12-18T07:42:02;96152.25;;;19.17;28.63
66486;BME280;53303;47.476;8.084;2022-12-18T07:44:46;96187.16;;;19.35;28.59
66486;BME280;53303;47.476;8.084;2022-12-18T07:47:13;96194.94;;;19.31;28.19
66486;BME280;53303;47.476;8.084;2022-12-18T07:49:39;96198.16;;;19.29;28.31
66486;BME280;53303;47.476;8.084;2022-12-18T07:52:04;96212.06;;;19.35;28.16
66486;BME280;53303;47.476;8.084;2022-12-18T07:54:32;96214.56;;;19.33;27.95
66486;BME280;53303;47.476;8.084;2022-12-18T07:56:59;96201.69;;;19.30;28.06
66486;BME280;53303;47.476;8.084;2022-12-18T07:59:25;96213.50;;;19.30;28.35
66486;BME280;53303;47.476;8.084;2022-12-18T08:01:50;96221.00;;;19.24;28.27
66486;BME280;53303;47.476;8.084;2022-12-18T08:04:18;96217.94;;;19.22;28.36
66486;BME280;53303;47.476;8.084;2022-12-18T08:06:43;96236.91;;;19.29;28.39
66486;BME280;53303;47.476;8.084;2022-12-18T08:09:11;96212.91;;;19.20;28.49
66486;BME280;53303;47.476;8.084;2022-12-18T08:11:36;96226.03;;;19.26;28.59
66486;BME280;53303;47.476;8.084;2022-12-18T08:14:02;96229.22;;;19.18;28.62
66486;BME280;53303;47.476;8.084;2022-12-18T08:16:30;96227.97;;;19.19;28.54
66486;BME280;53303;47.476;8.084;2022-12-18T08:18:55;96234.81;;;19.24;28.65
66486;BME280;53303;47.476;8.084;2022-12-18T08:21:25;96247.91;;;19.24;28.73
66486;BME280;53303;47.476;8.084;2022-12-18T08:23:57;96252.47;;;19.27;28.51
66486;BME280;53303;47.476;8.084;2022-12-18T08:26:24;96227.34;;;19.10;28.61
66486;BME280;53303;47.476;8.084;2022-12-18T08:28:57;96222.06;;;19.12;28.77
66486;BME280;53303;47.476;8.084;2022-12-18T08:31:24;96238.63;;;19.27;28.64
66486;BME280;53303;47.476;8.084;2022-12-18T08:33:51;96246.16;;;19.26;28.85
66486;BME280;53303;47.476;8.084;2022-12-18T08:36:22;96210.19;;;19.06;28.60
66486;BME280;53303;47.476;8.084;2022-12-18T08:38:52;96239.41;;;19.27;28.57
66486;BME280;53303;47.476;8.084;2022-12-18T08:41:23;96244.94;;;19.27;28.61
66486;BME280;53303;47.476;8.084;2022-12-18T08:43:49;96237.38;;;19.28;28.76
66486;BME280;53303;47.476;8.084;2022-12-18T08:46:38;96228.06;;;19.25;28.52
66486;BME280;53303;47.476;8.084;2022-12-18T08:49:08;96213.56;;;19.15;28.56
66486;BME280;53303;47.476;8.084;2022-12-18T08:51:34;96237.88;;;19.26;28.55
66486;BME280;53303;47.476;8.084;2022-12-18T08:54:03;96231.09;;;19.27;28.57
66486;BME280;53303;47.476;8.084;2022-12-18T08:56:34;96223.22;;;19.20;28.57
66486;BME280;53303;47.476;8.084;2022-12-18T08:58:59;96233.59;;;19.25;28.53
66486;BME280;53303;47.476;8.084;2022-12-18T09:01:25;96219.75;;;19.25;28.55
66486;BME280;53303;47.476;8.084;2022-12-18T09:03:55;96216.22;;;19.25;28.47
66486;BME280;53303;47.476;8.084;2022-12-18T09:06:23;96207.09;;;19.18;28.71
66486;BME280;53303;47.476;8.084;2022-12-18T09:08:49;96218.50;;;19.26;28.60
66486;BME280;53303;47.476;8.084;2022-12-18T09:11:28;96204.31;;;19.18;28.50
66486;BME280;53303;47.476;8.084;2022-12-18T09:13:58;96224.50;;;19.25;28.47
66486;BME280;53303;47.476;8.084;2022-12-18T09:16:29;96233.00;;;19.21;28.49
66486;BME280;53303;47.476;8.084;2022-12-18T09:18:56;96232.25;;;19.20;28.51
66486;BME280;53303;47.476;8.084;2022-12-18T09:21:27;96253.72;;;19.26;28.67
66486;BME280;53303;47.476;8.084;2022-12-18T09:23:54;96242.66;;;19.26;28.74
66486;BME280;53303;47.476;8.084;2022-12-18T09:26:23;96256.97;;;19.24;28.48
66486;BME280;53303;47.476;8.084;2022-12-18T09:28:49;96234.56;;;19.22;28.73
66486;BME280;53303;47.476;8.084;2022-12-18T09:31:19;96246.84;;;19.21;28.58
66486;BME280;53303;47.476;8.084;2022-12-18T09:33:44;96256.97;;;19.24;28.63
66486;BME280;53303;47.476;8.084;2022-12-18T09:36:15;96239.88;;;19.26;28.48
66486;BME280;53303;47.476;8.084;2022-12-18T09:38:41;96242.66;;;19.26;28.59
66486;BME280;53303;47.476;8.084;2022-12-18T09:41:41;96252.66;;;19.23;28.48
66486;BME280;53303;47.476;8.084;2022-12-18T09:44:19;96240.00;;;19.16;28.55
66486;BME280;53303;47.476;8.084;2022-12-18T09:46:58;96242.38;;;19.24;28.58
66486;BME280;53303;47.476;8.084;2022-12-18T09:49:29;96254.94;;;19.25;28.65
66486;BME280;53303;47.476;8.084;2022-12-18T09:52:02;96252.97;;;19.25;28.50
66486;BME280;53303;47.476;8.084;2022-12-18T09:54:50;96235.22;;;19.17;28.38
66486;BME280;53303;47.476;8.084;2022-12-18T09:57:19;96257.72;;;19.25;28.46
66486;BME280;53303;47.476;8.084;2022-12-18T10:00:16;96250.69;;;19.09;28.49
66486;BME280;53303;47.476;8.084;2022-12-18T10:02:43;96240.88;;;19.08;28.86
66486;BME280;53303;47.476;8.084;2022-12-18T10:05:16;96251.84;;;19.17;28.48
66486;BME280;53303;47.476;8.084;2022-12-18T10:13:31;96254.19;;;19.24;28.49
66486;BME280;53303;47.476;8.084;2022-12-18T10:18:54;96241.97;;;19.31;28.44
66486;BME280;53303;47.476;8.084;2022-12-18T10:21:29;96253.06;;;19.16;28.61
66486;BME280;53303;47.476;8.084;2022-12-18T10:26:41;96233.28;;;19.23;28.48
66486;BME280;53303;47.476;8.084;2022-12-18T10:29:12;96215.31;;;19.13;28.41
66486;BME280;53303;47.476;8.084;2022-12-18T10:31:38;96234.41;;;19.31;28.52
66486;BME280;53303;47.476;8.084;2022-12-18T10:34:07;96246.50;;;19.34;28.46
66486;BME280;53303;47.476;8.084;2022-12-18T10:36:34;96245.56;;;19.37;28.37
66486;BME280;53303;47.476;8.084;2022-12-18T10:39:19;96225.78;;;19.24;28.43
66486;BME280;53303;47.476;8.084;2022-12-18T10:41:44;96239.28;;;19.36;29.64
66486;BME280;53303;47.476;8.084;2022-12-18T10:46:51;96242.75;;;19.52;32.36
66486;BME280;53303;47.476;8.084;2022-12-18T10:49:27;96235.13;;;19.47;34.03
66486;BME280;53303;47.476;8.084;2022-12-18T10:52:22;96237.97;;;19.52;34.71
66486;BME280;53303;47.476;8.084;2022-12-18T10:54:58;96233.38;;;19.49;35.36
66486;BME280;53303;47.476;8.084;2022-12-18T11:00:24;96237.22;;;19.52;35.79
66486;BME280;53303;47.476;8.084;2022-12-18T11:02:56;96225.09;;;19.49;35.95
66486;BME280;53303;47.476;8.084;2022-12-18T11:07:51;96219.41;;;19.58;35.85
66486;BME280;53303;47.476;8.084;2022-12-18T11:10:20;96198.38;;;19.46;35.81
66486;BME280;53303;47.476;8.084;2022-12-18T11:12:48;96204.75;;;19.52;35.71
66486;BME280;53303;47.476;8.084;2022-12-18T11:15:21;96209.81;;;19.54;35.39
66486;BME280;53303;47.476;8.084;2022-12-18T11:17:50;96214.44;;;19.63;35.31
66486;BME280;53303;47.476;8.084;2022-12-18T11:20:42;96208.59;;;19.60;35.05
66486;BME280;53303;47.476;8.084;2022-12-18T11:23:12;96221.47;;;19.64;34.86
66486;BME280;53303;47.476;8.084;2022-12-18T11:25:57;96208.28;;;19.53;34.90
66486;BME280;53303;47.476;8.084;2022-12-18T11:28:36;96208.06;;;19.56;34.64
66486;BME280;53303;47.476;8.084;2022-12-18T11:34:06;96190.28;;;19.43;34.41
66486;BME280;53303;47.476;8.084;2022-12-18T11:36:42;96212.41;;;19.63;34.16
66486;BME280;53303;47.476;8.084;2022-12-18T11:42:12;96210.88;;;19.62;33.98
66486;BME280;53303;47.476;8.084;2022-12-18T11:47:49;96205.50;;;19.53;33.79
66486;BME280;53303;47.476;8.084;2022-12-18T11:52:49;96208.91;;;19.63;33.40
66486;BME280;53303;47.476;8.084;2022-12-18T11:58:10;96185.59;;;19.49;33.46
66486;BME280;53303;47.476;8.084;2022-12-18T12:00:52;96205.09;;;19.60;33.31
66486;BME280;53303;47.476;8.084;2022-12-18T12:14:33;96196.34;;;19.67;32.79
66486;BME280;53303;47.476;8.084;2022-12-18T12:38:57;96174.56;;;19.54;32.18
66486;BME280;53303;47.476;8.084;2022-12-18T12:41:31;96178.72;;;19.65;32.22
66486;BME280;53303;47.476;8.084;2022-12-18T12:44:27;96161.75;;;19.57;32.05
66486;BME280;53303;47.476;8.084;2022-12-18T12:46:57;96160.09;;;19.65;32.24
66486;BME280;53303;47.476;8.084;2022-12-18T12:49:27;96152.97;;;19.58;32.19
66486;BME280;53303;47.476;8.084;2022-12-18T12:52:15;96166.13;;;19.64;31.88
66486;BME280;53303;47.476;8.084;2022-12-18T12:54:42;96159.13;;;19.68;31.89
66486;BME280;53303;47.476;8.084;2022-12-18T13:05:51;96164.59;;;19.63;31.89
66486;BME280;53303;47.476;8.084;2022-12-18T13:08:28;96151.47;;;19.57;31.72
66486;BME280;53303;47.476;8.084;2022-12-18T13:11:00;96148.47;;;19.61;31.77
66486;BME280;53303;47.476;8.084;2022-12-18T13:13:51;96163.41;;;19.69;31.61
66486;BME280;53303;47.476;8.084;2022-12-18T13:16:24;96160.16;;;19.71;31.68
66486;BME280;53303;47.476;8.084;2022-12-18T13:18:56;96170.28;;;19.74;31.64
66486;BME280;53303;47.476;8.084;2022-12-18T13:21:32;96174.56;;;19.75;31.41
66486;BME280;53303;47.476;8.084;2022-12-18T13:24:15;96164.66;;;19.68;31.49
66486;BME280;53303;47.476;8.084;2022-12-18T13:26:45;96163.13;;;19.67;31.51
66486;BME280;53303;47.476;8.084;2022-12-18T13:29:10;96155.09;;;19.69;31.51
66486;BME280;53303;47.476;8.084;2022-12-18T13:34:26;96174.34;;;19.78;31.29
66486;BME280;53303;47.476;8.084;2022-12-18T13:36:55;96170.06;;;19.77;31.54
66486;BME280;53303;47.476;8.084;2022-12-18T13:39:31;96176.41;;;19.84;31.56
66486;BME280;53303;47.476;8.084;2022-12-18T13:47:02;96165.91;;;19.88;31.25
66486;BME280;53303;47.476;8.084;2022-12-18T13:49:43;96162.88;;;19.86;31.31
66486;BME280;53303;47.476;8.084;2022-12-18T13:52:21;96140.38;;;19.78;31.15
66486;BME280;53303;47.476;8.084;2022-12-18T13:54:52;96162.09;;;19.85;31.14
66486;BME280;53303;47.476;8.084;2022-12-18T13:57:31;96149.72;;;19.81;31.20
66486;BME280;53303;47.476;8.084;2022-12-18T14:00:14;96132.19;;;19.69;31.27
66486;BME280;53303;47.476;8.084;2022-12-18T14:02:45;96154.22;;;19.78;31.26
66486;BME280;53303;47.476;8.084;2022-12-18T14:05:30;96150.41;;;19.75;31.08
66486;BME280;53303;47.476;8.084;2022-12-18T14:08:01;96159.22;;;19.74;31.19
66486;BME280;53303;47.476;8.084;2022-12-18T14:10:28;96157.88;;;19.69;30.98
66486;BME280;53303;47.476;8.084;2022-12-18T14:13:02;96154.88;;;19.73;31.26
66486;BME280;53303;47.476;8.084;2022-12-18T14:15:47;96146.19;;;19.59;31.18
66486;BME280;53303;47.476;8.084;2022-12-18T14:18:54;96153.81;;;19.65;31.35
66486;BME280;53303;47.476;8.084;2022-12-18T14:21:28;96155.31;;;19.66;31.20
66486;BME280;53303;47.476;8.084;2022-12-18T14:24:15;96151.47;;;19.57;31.29
66486;BME280;53303;47.476;8.084;2022-12-18T14:26:44;96143.91;;;19.58;31.23
66486;BME280;53303;47.476;8.084;2022-12-18T14:29:30;96157.00;;;19.57;31.22
66486;BME280;53303;47.476;8.084;2022-12-18T14:32:09;96143.38;;;19.54;31.25
66486;BME280;53303;47.476;8.084;2022-12-18T14:34:35;96130.91;;;19.44;30.87
66486;BME280;53303;47.476;8.084;2022-12-18T14:37:01;96152.97;;;19.58;31.22
66486;BME280;53303;47.476;8.084;2022-12-18T14:39:26;96145.09;;;19.51;31.12
66486;BME280;53303;47.476;8.084;2022-12-18T14:41:54;96141.34;;;19.54;31.39
66486;BME280;53303;47.476;8.084;2022-12-18T14:44:19;96150.88;;;19.53;31.37
66486;BME280;53303;47.476;8.084;2022-12-18T14:46:49;96146.13;;;19.54;31.17
66486;BME280;53303;47.476;8.084;2022-12-18T14:49:23;96151.94;;;19.56;31.22
66486;BME280;53303;47.476;8.084;2022-12-18T14:51:57;96139.75;;;19.48;31.08
66486;BME280;53303;47.476;8.084;2022-12-18T14:54:27;96131.19;;;19.46;30.98
66486;BME280;53303;47.476;8.084;2022-12-18T14:57:04;96149.88;;;19.51;31.23
66486;BME280;53303;47.476;8.084;2022-12-18T14:59:30;96146.84;;;19.49;31.13
66486;BME280;53303;47.476;8.084;2022-12-18T15:07:06;96163.91;;;19.47;31.16
66486;BME280;53303;47.476;8.084;2022-12-18T15:09:33;96155.56;;;19.42;31.12
66486;BME280;53303;47.476;8.084;2022-12-18T15:12:00;96169.94;;;19.46;31.28
66486;BME280;53303;47.476;8.084;2022-12-18T15:17:03;96183.50;;;19.44;31.13
66486;BME280;53303;47.476;8.084;2022-12-18T15:21:58;96166.84;;;19.38;30.85
66486;BME280;53303;47.476;8.084;2022-12-18T15:24:32;96168.81;;;19.37;31.10
66486;BME280;53303;47.476;8.084;2022-12-18T15:26:58;96165.56;;;19.39;31.04